Time;durP1;ratioP1;P1;durP2;ratioP2;P2;SDS_P1;SDS_P2;PMS_P1;PMS_P2;Temp;Humidity;BMP_temperature;BMP_pressure;BME280_temperature;BME280_humidity;BME280_pressure;Samples;Min_cycle;Max_cycle;Signal;HPM_P1;HPM_P2
2022/03/14 00:00:20;;;;;;;;;;;;;;;2.19;32.93;101181.53;4384303;32;34675;-76
2022/03/14 00:02:47;;;;;;;;;;;;;;;2.19;32.94;101176.28;4398360;32;34402;-76
2022/03/14 00:05:15;;;;;;;;;;;;;;;2.06;33.04;101183.75;4398234;32;34195;-78
2022/03/14 00:07:44;;;;;;;;;;;;;;;2.15;32.93;101178.16;4384279;32;34879;-75
2022/03/14 00:10:15;;;;;;;;;;;;;;;2.20;33.11;101186.72;4384033;32;33330;-75
2022/03/14 00:12:43;;;;;;;;;;;;;;;2.22;32.81;101202.41;4386891;32;33619;-75
2022/03/14 00:15:11;;;;;;;;;;;;;;;2.17;32.67;101194.69;4373705;32;33480;-76
2022/03/14 00:17:41;;;;;;;;;;;;;;;2.08;33.41;101196.84;4373136;32;34919;-76
2022/03/14 00:20:11;;;;;;;;;;;;;;;1.79;34.55;101197.91;4400101;32;35211;-75
2022/03/14 00:22:38;;;;;;;;;;;;;;;1.78;34.17;101197.97;4386546;32;35484;-78
2022/03/14 00:25:06;;;;;;;;;;;;;;;1.98;34.07;101193.69;4386493;32;32666;-78
2022/03/14 00:27:37;;;;;;;;;;;;;;;2.01;33.89;101197.97;4386205;32;33237;-78
2022/03/14 00:30:05;;;;;;;;;;;;;;;1.96;33.68;101198.12;4386516;32;35778;-78
2022/03/14 00:32:34;;;;;;;;;;;;;;;2.03;33.63;101199.63;4374011;32;34414;-78
2022/03/14 00:35:02;;;;;;;;;;;;;;;1.81;34.00;101201.31;4373901;32;31769;-78
2022/03/14 00:37:30;;;;;;;;;;;;;;;1.81;34.17;101196.06;4373831;32;34265;-77
2022/03/14 00:39:57;;;;;;;;;;;;;;;1.86;34.11;101202.00;4400112;32;35716;-77
2022/03/14 00:42:25;;;;;;;;;;;;;;;1.81;34.18;101198.69;4386209;32;35323;-77
2022/03/14 00:44:52;;;;;;;;;;;;;;;1.84;34.05;101202.97;4387068;32;33451;-77
2022/03/14 00:47:21;;;;;;;;;;;;;;;1.72;34.26;101201.69;4386444;32;34065;-77
2022/03/14 00:49:48;;;;;;;;;;;;;;;1.76;34.16;101200.66;4373935;32;34621;-78
2022/03/14 00:52:19;;;;;;;;;;;;;;;2.01;34.21;101204.09;4399988;32;35545;-78
2022/03/14 00:54:50;;;;;;;;;;;;;;;1.95;34.61;101195.56;4374340;32;32563;-78
2022/03/14 00:57:17;;;;;;;;;;;;;;;1.71;35.09;101199.94;4365230;32;800072;-78
2022/03/14 00:59:44;;;;;;;;;;;;;;;1.56;35.09;101200.50;4395696;32;36210;-78
2022/03/14 01:02:12;;;;;;;;;;;;;;;1.72;34.93;101206.06;4386353;32;34002;-77
2022/03/14 01:04:40;;;;;;;;;;;;;;;1.64;34.86;101195.84;4399989;32;33988;-78
2022/03/14 01:07:07;;;;;;;;;;;;;;;1.64;35.26;101201.09;4386061;32;34337;-78
2022/03/14 01:09:34;;;;;;;;;;;;;;;1.60;34.60;101199.47;4386489;32;35571;-78
2022/03/14 01:12:02;;;;;;;;;;;;;;;1.82;34.46;101208.31;4385848;32;35339;-78
2022/03/14 01:14:29;;;;;;;;;;;;;;;1.78;34.33;101211.09;4373805;32;33373;-78
2022/03/14 01:16:57;;;;;;;;;;;;;;;1.70;34.63;101211.34;4373201;32;32797;-77
2022/03/14 01:19:24;;;;;;;;;;;;;;;1.51;34.66;101210.28;4385788;32;35832;-77
2022/03/14 01:21:51;;;;;;;;;;;;;;;1.55;34.72;101211.03;4373088;32;32529;-77
2022/03/14 01:24:19;;;;;;;;;;;;;;;1.56;34.63;101216.25;4372950;32;31316;-77
2022/03/14 01:26:46;;;;;;;;;;;;;;;1.55;34.60;101211.91;4385820;32;33869;-77
2022/03/14 01:29:15;;;;;;;;;;;;;;;1.58;34.85;101213.53;4385797;32;35981;-78
2022/03/14 01:31:42;;;;;;;;;;;;;;;1.70;34.31;101210.50;4374004;32;34582;-77
2022/03/14 01:34:10;;;;;;;;;;;;;;;1.53;35.34;101210.25;4374096;32;32775;-77
2022/03/14 01:36:38;;;;;;;;;;;;;;;1.61;35.47;101216.06;4373865;32;33515;-77
2022/03/14 01:39:05;;;;;;;;;;;;;;;1.53;35.37;101215.50;4385806;32;34891;-77
2022/03/14 01:41:33;;;;;;;;;;;;;;;1.53;35.12;101213.69;4386041;32;34997;-77
2022/03/14 01:44:00;;;;;;;;;;;;;;;1.60;34.97;101224.84;4400637;32;32397;-77
2022/03/14 01:46:28;;;;;;;;;;;;;;;1.45;35.62;101218.38;4373800;32;33896;-77
2022/03/14 01:48:56;;;;;;;;;;;;;;;1.36;36.15;101230.94;4399723;32;35383;-76
2022/03/14 01:51:25;;;;;;;;;;;;;;;1.49;35.30;101227.84;4385352;32;33800;-77
2022/03/14 01:53:53;;;;;;;;;;;;;;;1.49;35.21;101221.75;4385827;32;33575;-77
2022/03/14 01:56:20;;;;;;;;;;;;;;;1.50;35.12;101229.56;4399500;32;33664;-76
2022/03/14 01:58:48;;;;;;;;;;;;;;;1.45;34.93;101228.88;4385665;32;35168;-77
2022/03/14 02:01:15;;;;;;;;;;;;;;;1.41;34.96;101235.12;4399637;32;35479;-76
2022/03/14 02:03:43;;;;;;;;;;;;;;;1.27;35.39;101239.97;4385186;32;32455;-77
2022/03/14 02:06:10;;;;;;;;;;;;;;;1.36;35.90;101241.44;4400124;32;33989;-76
2022/03/14 02:08:39;;;;;;;;;;;;;;;1.37;35.50;101244.00;4385583;32;34921;-77
2022/03/14 02:11:06;;;;;;;;;;;;;;;1.35;36.01;101242.34;4385288;32;34051;-76
2022/03/14 02:13:34;;;;;;;;;;;;;;;1.34;36.11;101246.72;4372896;32;32562;-76
2022/03/14 02:16:01;;;;;;;;;;;;;;;1.20;36.74;101248.94;4399927;32;33913;-77
2022/03/14 02:18:29;;;;;;;;;;;;;;;1.18;36.51;101242.91;4373031;32;34793;-77
2022/03/14 02:20:56;;;;;;;;;;;;;;;1.09;37.05;101245.84;4373038;32;34394;-77
2022/03/14 02:23:23;;;;;;;;;;;;;;;1.16;36.96;101257.84;4373072;32;31728;-77
2022/03/14 02:25:52;;;;;;;;;;;;;;;1.18;36.80;101258.62;4385675;32;33573;-77
2022/03/14 02:28:22;;;;;;;;;;;;;;;1.09;36.91;101258.06;4399900;32;35390;-77
2022/03/14 02:30:50;;;;;;;;;;;;;;;1.07;36.79;101266.00;4399611;32;35639;-76
2022/03/14 02:33:18;;;;;;;;;;;;;;;1.15;37.12;101261.34;4385679;32;33208;-77
2022/03/14 02:35:46;;;;;;;;;;;;;;;1.15;36.93;101255.25;4398989;32;33304;-76
2022/03/14 02:38:19;;;;;;;;;;;;;;;0.88;37.75;101264.88;4399003;32;35105;-76
2022/03/14 02:40:47;;;;;;;;;;;;;;;1.04;37.62;101263.44;4399123;32;34196;-76
2022/03/14 02:43:15;;;;;;;;;;;;;;;0.78;37.62;101263.41;4373167;32;33152;-76
2022/03/14 02:45:43;;;;;;;;;;;;;;;0.76;37.76;101267.00;4385477;32;34790;-76
2022/03/14 02:48:13;;;;;;;;;;;;;;;0.92;37.60;101258.62;4399413;32;34702;-76
2022/03/14 02:50:42;;;;;;;;;;;;;;;1.06;37.37;101259.00;4399766;32;35090;-76
2022/03/14 02:53:11;;;;;;;;;;;;;;;0.90;37.36;101263.06;4400093;32;33506;-76
2022/03/14 02:55:39;;;;;;;;;;;;;;;0.64;37.94;101268.25;4385726;32;31669;-76
2022/03/14 02:58:07;;;;;;;;;;;;;;;0.80;37.52;101266.00;4372664;32;34427;-76
2022/03/14 03:00:35;;;;;;;;;;;;;;;0.93;37.22;101270.81;4385148;32;34006;-76
2022/03/14 03:03:04;;;;;;;;;;;;;;;0.91;37.13;101277.00;4385576;32;33993;-76
2022/03/14 03:05:32;;;;;;;;;;;;;;;0.67;38.16;101278.63;4385206;32;32273;-76
2022/03/14 03:08:01;;;;;;;;;;;;;;;0.93;37.16;101278.66;4399002;32;35273;-77
2022/03/14 03:10:29;;;;;;;;;;;;;;;0.69;37.65;101282.03;4385393;32;34819;-76
2022/03/14 03:12:56;;;;;;;;;;;;;;;0.82;37.46;101288.63;4384950;32;32937;-76
2022/03/14 03:15:24;;;;;;;;;;;;;;;0.75;37.86;101287.09;4385097;32;33793;-76
2022/03/14 03:17:52;;;;;;;;;;;;;;;0.86;37.42;101292.00;4385071;32;36825;-76
2022/03/14 03:20:20;;;;;;;;;;;;;;;0.56;38.11;101290.34;4399201;32;35279;-76
2022/03/14 03:22:47;;;;;;;;;;;;;;;0.79;37.54;101295.72;4399162;32;33404;-76
2022/03/14 03:25:15;;;;;;;;;;;;;;;0.66;38.09;101295.22;4372309;32;34912;-76
2022/03/14 03:27:45;;;;;;;;;;;;;;;0.91;37.34;101290.09;4372614;32;34876;-76
2022/03/14 03:30:13;;;;;;;;;;;;;;;0.59;38.38;101301.56;4398761;32;35516;-76
2022/03/14 03:32:41;;;;;;;;;;;;;;;0.50;38.95;101300.97;4398787;32;33908;-77
2022/03/14 03:35:08;;;;;;;;;;;;;;;0.64;38.31;101299.66;4384920;32;34320;-76
2022/03/14 03:37:38;;;;;;;;;;;;;;;0.66;38.17;101300.47;4372619;32;35822;-76
2022/03/14 03:40:06;;;;;;;;;;;;;;;0.60;38.51;101307.66;4384673;32;35431;-76
2022/03/14 03:42:34;;;;;;;;;;;;;;;0.66;38.57;101300.47;4384651;32;34345;-76
2022/03/14 03:45:01;;;;;;;;;;;;;;;0.63;38.67;101310.19;4398891;32;34624;-76
2022/03/14 03:47:28;;;;;;;;;;;;;;;0.44;39.26;101314.25;4386601;32;35612;-76
2022/03/14 03:49:57;;;;;;;;;;;;;;;0.50;38.75;101314.91;4373812;32;34107;-76
2022/03/14 03:52:24;;;;;;;;;;;;;;;0.31;39.24;101316.34;4374018;32;33066;-76
2022/03/14 03:54:52;;;;;;;;;;;;;;;0.61;38.37;101309.38;4386393;32;35137;-76
2022/03/14 03:57:19;;;;;;;;;;;;;;;0.50;38.72;101320.16;4400338;32;34804;-76
2022/03/14 03:59:46;;;;;;;;;;;;;;;0.51;38.56;101319.28;4373892;32;33120;-76
2022/03/14 04:02:18;;;;;;;;;;;;;;;0.55;38.63;101312.16;4400249;32;33732;-76
2022/03/14 04:04:47;;;;;;;;;;;;;;;0.49;38.63;101321.06;4387107;32;34066;-76
2022/03/14 04:07:18;;;;;;;;;;;;;;;0.48;38.65;101321.97;4373920;32;34779;-76
2022/03/14 04:09:47;;;;;;;;;;;;;;;0.57;38.52;101313.84;4399802;32;35368;-76
2022/03/14 04:12:14;;;;;;;;;;;;;;;0.47;38.52;101308.94;4400937;32;34059;-76
2022/03/14 04:14:41;;;;;;;;;;;;;;;0.36;38.94;101309.25;4374877;32;33402;-76
2022/03/14 04:17:09;;;;;;;;;;;;;;;0.51;38.62;101303.56;4374031;32;35095;-76
2022/03/14 04:19:40;;;;;;;;;;;;;;;0.41;38.60;101311.72;4400367;32;34262;-76
2022/03/14 04:22:08;;;;;;;;;;;;;;;0.41;38.65;101314.34;4400040;32;34253;-76
2022/03/14 04:24:37;;;;;;;;;;;;;;;0.35;39.04;101327.59;4400319;32;35111;-76
2022/03/14 04:27:04;;;;;;;;;;;;;;;0.49;38.60;101322.84;4386451;32;34948;-76
2022/03/14 04:29:32;;;;;;;;;;;;;;;0.43;38.68;101330.84;4392734;32;33053;-76
2022/03/14 04:32:00;;;;;;;;;;;;;;;0.36;38.83;101324.06;4386767;32;32965;-76
2022/03/14 04:34:27;;;;;;;;;;;;;;;0.32;38.81;101328.53;4386186;32;33398;-76
2022/03/14 04:36:54;;;;;;;;;;;;;;;0.15;39.30;101333.41;4385767;32;34491;-76
2022/03/14 04:39:22;;;;;;;;;;;;;;;0.23;39.17;101334.06;4385738;32;35835;-76
2022/03/14 04:41:49;;;;;;;;;;;;;;;0.24;39.18;101332.28;4386235;32;33405;-76
2022/03/14 04:44:17;;;;;;;;;;;;;;;0.23;38.93;101334.06;4385911;32;34268;-76
2022/03/14 04:46:44;;;;;;;;;;;;;;;0.09;39.20;101345.78;4386136;32;34825;-76
2022/03/14 04:49:13;;;;;;;;;;;;;;;-0.09;40.42;101348.03;4386126;32;35448;-76
2022/03/14 04:51:42;;;;;;;;;;;;;;;-0.01;40.36;101352.16;4386604;32;33681;-76
2022/03/14 04:54:10;;;;;;;;;;;;;;;0.03;40.50;101352.03;4386405;32;35005;-76
2022/03/14 04:56:37;;;;;;;;;;;;;;;0.13;39.88;101348.25;4373255;32;33499;-76
2022/03/14 04:59:05;;;;;;;;;;;;;;;0.08;39.85;101352.78;4372816;32;34115;-76
2022/03/14 05:01:32;;;;;;;;;;;;;;;-0.37;41.23;101363.59;4400072;32;33507;-76
2022/03/14 05:04:00;;;;;;;;;;;;;;;-0.19;40.95;101357.88;4373967;32;34212;-76
2022/03/14 05:06:27;;;;;;;;;;;;;;;0.00;40.51;101364.38;4373134;32;33531;-76
2022/03/14 05:08:55;;;;;;;;;;;;;;;0.04;40.11;101366.00;4385781;32;34555;-77
2022/03/14 05:11:22;;;;;;;;;;;;;;;-0.08;40.17;101367.16;4385996;32;34403;-76
2022/03/14 05:13:49;;;;;;;;;;;;;;;-0.03;40.28;101362.69;4373411;32;33489;-76
2022/03/14 05:16:19;;;;;;;;;;;;;;;-0.12;41.18;101367.28;4373462;32;34540;-77
2022/03/14 05:18:46;;;;;;;;;;;;;;;-0.17;41.42;101366.56;4386131;32;35198;-76
2022/03/14 05:21:15;;;;;;;;;;;;;;;0.02;40.86;101373.03;4373359;32;32164;-77
2022/03/14 05:23:42;;;;;;;;;;;;;;;-0.12;41.07;101366.44;4399673;32;33133;-77
2022/03/14 05:26:10;;;;;;;;;;;;;;;-0.36;41.55;101377.50;4385763;32;35229;-76
2022/03/14 05:28:37;;;;;;;;;;;;;;;-0.07;41.41;101371.50;4372538;32;34293;-76
2022/03/14 05:31:04;;;;;;;;;;;;;;;-0.11;41.84;101370.78;4399903;32;33289;-76
2022/03/14 05:33:32;;;;;;;;;;;;;;;-0.11;41.98;101376.84;4385405;32;32921;-76
2022/03/14 05:36:01;;;;;;;;;;;;;;;-0.09;42.04;101382.91;4399642;32;35397;-76
2022/03/14 05:38:28;;;;;;;;;;;;;;;0.11;41.49;101389.31;4386168;32;34880;-76
2022/03/14 05:40:56;;;;;;;;;;;;;;;0.22;40.89;101392.50;4399439;32;33504;-76
2022/03/14 05:43:27;;;;;;;;;;;;;;;0.26;40.51;101401.12;4399903;32;34824;-76
2022/03/14 05:45:55;;;;;;;;;;;;;;;0.27;40.19;101405.47;4386494;32;37052;-76
2022/03/14 05:48:22;;;;;;;;;;;;;;;-0.01;40.77;101402.72;4373592;32;35517;-76
2022/03/14 05:50:50;;;;;;;;;;;;;;;0.20;40.34;101404.78;4399545;32;32770;-77
2022/03/14 05:53:18;;;;;;;;;;;;;;;0.23;40.58;101403.84;4373504;32;34773;-76
2022/03/14 05:55:45;;;;;;;;;;;;;;;0.27;41.22;101403.72;4373274;32;37165;-77
2022/03/14 05:58:13;;;;;;;;;;;;;;;0.35;41.61;101416.59;4399783;32;34727;-77
2022/03/14 06:00:42;;;;;;;;;;;;;;;0.56;40.71;101416.84;4399690;32;33239;-77
2022/03/14 06:03:09;;;;;;;;;;;;;;;0.69;40.25;101422.63;4373375;32;33884;-77
2022/03/14 06:05:37;;;;;;;;;;;;;;;0.79;39.92;101424.94;4399435;32;36856;-77
2022/03/14 06:08:04;;;;;;;;;;;;;;;0.83;39.68;101429.19;4385631;32;35376;-77
2022/03/14 06:10:33;;;;;;;;;;;;;;;0.92;39.46;101428.03;4398998;32;33956;-77
2022/03/14 06:13:00;;;;;;;;;;;;;;;1.04;39.42;101428.53;4385524;32;33956;-77
2022/03/14 06:15:27;;;;;;;;;;;;;;;1.09;39.89;101425.78;4385499;32;34852;-77
2022/03/14 06:17:55;;;;;;;;;;;;;;;1.21;39.95;101442.00;4385466;32;34842;-77
2022/03/14 06:20:22;;;;;;;;;;;;;;;1.28;40.24;101442.66;4385652;32;33236;-77
2022/03/14 06:22:50;;;;;;;;;;;;;;;1.31;40.68;101443.44;4385975;32;33521;-76
2022/03/14 06:25:18;;;;;;;;;;;;;;;1.33;41.06;101443.41;4373647;32;34627;-76
2022/03/14 06:27:45;;;;;;;;;;;;;;;1.49;40.63;101447.28;4385845;32;34915;-76
2022/03/14 06:30:13;;;;;;;;;;;;;;;1.67;40.33;101442.28;4384902;32;33034;-77
2022/03/14 06:32:41;;;;;;;;;;;;;;;1.65;40.85;101446.75;4384312;32;32445;-76
2022/03/14 06:35:09;;;;;;;;;;;;;;;1.91;40.31;101448.50;4383791;32;35834;-76
2022/03/14 06:37:37;;;;;;;;;;;;;;;1.93;40.72;101452.81;4384811;32;32944;-77
2022/03/14 06:40:05;;;;;;;;;;;;;;;2.26;40.07;101449.03;4384895;32;31840;-76
2022/03/14 06:42:34;;;;;;;;;;;;;;;2.45;39.73;101444.03;4379073;32;33514;-77
2022/03/14 06:45:02;;;;;;;;;;;;;;;2.57;39.88;101449.72;4384268;32;34412;-75
2022/03/14 06:47:32;;;;;;;;;;;;;;;2.86;37.40;101434.56;4395959;32;34085;-77
2022/03/14 06:50:01;;;;;;;;;;;;;;;2.85;38.15;101442.53;4384345;32;32817;-76
2022/03/14 06:52:44;;;;;;;;;;;;;;;3.15;37.07;101436.97;4372346;32;32225;-79
2022/03/14 06:55:18;;;;;;;;;;;;;;;3.16;36.76;101448.34;4360397;32;34940;-76
2022/03/14 06:57:50;;;;;;;;;;;;;;;3.36;36.47;101449.31;4384831;32;34896;-78
2022/03/14 07:00:29;;;;;;;;;;;;;;;3.78;35.28;101457.28;4427505;27;33090;-76
2022/03/14 07:02:57;;;;;;;;;;;;;;;3.92;34.56;101453.19;4411389;32;33962;-76
2022/03/14 07:05:26;;;;;;;;;;;;;;;4.31;33.79;101446.25;4400355;32;34932;-77
2022/03/14 07:07:54;;;;;;;;;;;;;;;4.29;34.19;101461.28;4412890;32;34359;-77
2022/03/14 07:10:23;;;;;;;;;;;;;;;4.41;33.89;101455.47;4412113;32;32921;-77
2022/03/14 07:12:51;;;;;;;;;;;;;;;4.79;32.79;101453.81;4412265;32;34753;-78
2022/03/14 07:15:23;;;;;;;;;;;;;;;4.97;32.49;101455.59;4399587;32;34234;-78
2022/03/14 07:17:51;;;;;;;;;;;;;;;5.13;32.50;101449.59;4411773;32;34274;-78
2022/03/14 07:20:20;;;;;;;;;;;;;;;5.16;31.90;101449.44;4411992;32;32795;-78
2022/03/14 07:22:57;;;;;;;;;;;;;;;5.39;31.54;101446.59;4412748;32;34386;-78
2022/03/14 07:25:26;;;;;;;;;;;;;;;5.72;30.62;101445.84;4399484;32;33692;-78
2022/03/14 07:27:54;;;;;;;;;;;;;;;5.82;31.15;101449.78;4414087;32;34437;-78
2022/03/14 07:30:23;;;;;;;;;;;;;;;6.25;29.21;101446.72;4386895;32;33164;-78
2022/03/14 07:32:52;;;;;;;;;;;;;;;6.45;29.05;101448.34;4412626;32;33749;-79
2022/03/14 07:35:23;;;;;;;;;;;;;;;6.40;29.17;101445.06;4387370;32;34277;-80
2022/03/14 07:37:50;;;;;;;;;;;;;;;6.41;29.03;101446.78;4387013;32;33765;-79
2022/03/14 07:40:19;;;;;;;;;;;;;;;6.67;28.54;101436.59;4386063;32;32469;-79
2022/03/14 07:42:51;;;;;;;;;;;;;;;6.88;27.78;101447.84;4413059;32;33761;-77
2022/03/14 07:45:21;;;;;;;;;;;;;;;7.28;27.83;101442.94;4399725;32;35371;-79
2022/03/14 07:47:48;;;;;;;;;;;;;;;7.33;27.58;101442.69;4398597;32;34651;-79
2022/03/14 07:50:17;;;;;;;;;;;;;;;7.56;26.95;101444.94;4398506;32;31398;-77
2022/03/14 07:52:45;;;;;;;;;;;;;;;7.44;26.93;101449.12;4398850;32;33405;-86
2022/03/14 07:55:14;;;;;;;;;;;;;;;7.77;26.30;101443.72;4412948;32;35252;-78
2022/03/14 07:57:42;;;;;;;;;;;;;;;7.93;25.69;101450.72;4412109;32;35099;-76
2022/03/14 08:00:11;;;;;;;;;;;;;;;7.83;25.21;101449.53;4413871;32;32933;-77
2022/03/14 08:02:42;;;;;;;;;;;;;;;8.09;24.97;101458.66;4399509;32;34538;-77
2022/03/14 08:05:11;;;;;;;;;;;;;;;8.23;23.89;101451.66;4399860;32;34719;-78
2022/03/14 08:07:45;;;;;;;;;;;;;;;8.48;23.95;101456.34;4398653;32;34753;-79
2022/03/14 08:10:17;;;;;;;;;;;;;;;8.41;23.64;101457.66;4400574;32;33003;-78
2022/03/14 08:12:48;;;;;;;;;;;;;;;8.16;23.77;101460.84;4411756;32;33370;-78
2022/03/14 08:15:20;;;;;;;;;;;;;;;8.37;23.59;101461.44;4411321;32;35657;-80
2022/03/14 08:17:48;;;;;;;;;;;;;;;8.02;23.92;101467.91;4399406;32;34573;-79
2022/03/14 08:20:16;;;;;;;;;;;;;;;8.74;23.28;101453.84;4412998;32;33815;-77
2022/03/14 08:22:54;;;;;;;;;;;;;;;8.77;23.69;101462.47;4412737;32;33254;-80
2022/03/14 08:25:46;;;;;;;;;;;;;;;8.43;23.77;101461.06;4411153;32;35384;-80
2022/03/14 08:28:39;;;;;;;;;;;;;;;9.11;23.39;101462.12;4412252;32;34260;-79
2022/03/14 08:31:23;;;;;;;;;;;;;;;8.92;23.38;101473.94;4411251;32;33675;-80
2022/03/14 08:34:11;;;;;;;;;;;;;;;8.86;23.02;101480.50;4413945;32;34327;-78
2022/03/14 08:36:41;;;;;;;;;;;;;;;9.28;22.80;101469.03;4388642;32;33677;-78
2022/03/14 08:39:09;;;;;;;;;;;;;;;9.22;22.84;101470.28;4401310;32;34542;-78
2022/03/14 08:41:38;;;;;;;;;;;;;;;9.13;23.40;101465.53;4414846;32;32674;-79
2022/03/14 08:44:08;;;;;;;;;;;;;;;9.32;23.08;101466.09;4400733;32;35024;-80
2022/03/14 08:46:38;;;;;;;;;;;;;;;9.43;22.77;101474.22;4401482;32;35280;-79
2022/03/14 08:49:06;;;;;;;;;;;;;;;9.55;23.25;101468.13;4401135;32;32894;-80
2022/03/14 08:51:37;;;;;;;;;;;;;;;9.85;22.52;101465.31;4401748;32;33052;-79
2022/03/14 08:54:06;;;;;;;;;;;;;;;9.66;23.06;101473.63;4413582;32;33961;-78
2022/03/14 08:56:34;;;;;;;;;;;;;;;9.43;23.10;101468.91;4400934;32;35120;-80
2022/03/14 08:59:04;;;;;;;;;;;;;;;9.52;22.97;101473.66;4387845;32;33775;-78
2022/03/14 09:01:32;;;;;;;;;;;;;;;9.23;23.20;101476.41;4413640;32;34623;-78
2022/03/14 09:04:01;;;;;;;;;;;;;;;9.66;23.12;101468.28;4413869;32;34287;-79
2022/03/14 09:06:29;;;;;;;;;;;;;;;9.73;22.41;101471.44;4413817;32;34997;-80
2022/03/14 09:08:57;;;;;;;;;;;;;;;9.96;22.79;101476.12;4401108;32;35740;-77
2022/03/14 09:11:25;;;;;;;;;;;;;;;10.28;22.04;101475.72;4413756;32;33664;-78
2022/03/14 09:13:56;;;;;;;;;;;;;;;10.16;22.43;101473.91;4400267;32;33199;-80
2022/03/14 09:16:24;;;;;;;;;;;;;;;10.44;21.78;101473.75;4388027;32;35228;-79
2022/03/14 09:18:53;;;;;;;;;;;;;;;10.45;21.20;101466.63;4400763;32;34164;-79
2022/03/14 09:21:23;;;;;;;;;;;;;;;9.95;22.40;101472.62;4400565;32;34139;-80
2022/03/14 09:23:51;;;;;;;;;;;;;;;10.46;22.35;101469.19;4400373;32;34322;-80
2022/03/14 09:26:19;;;;;;;;;;;;;;;10.68;21.25;101472.09;4400128;32;35783;-80
2022/03/14 09:28:50;;;;;;;;;;;;;;;10.98;21.04;101462.00;4413782;32;35476;-78
2022/03/14 09:31:17;;;;;;;;;;;;;;;10.57;21.03;101468.47;4413414;32;33061;-78
2022/03/14 09:33:45;;;;;;;;;;;;;;;10.49;22.14;101471.63;4400653;32;34119;-79
2022/03/14 09:36:12;;;;;;;;;;;;;;;10.65;21.86;101466.97;4412666;32;35087;-78
2022/03/14 09:38:41;;;;;;;;;;;;;;;10.87;21.28;101475.19;4412090;32;33349;-76
2022/03/14 09:41:09;;;;;;;;;;;;;;;11.03;21.73;101470.53;4414386;32;33484;-79
2022/03/14 09:43:39;;;;;;;;;;;;;;;11.33;20.93;101471.88;4412191;32;35391;-79
2022/03/14 09:46:07;;;;;;;;;;;;;;;11.32;21.34;101468.50;4400330;32;36198;-78
2022/03/14 09:48:39;;;;;;;;;;;;;;;11.50;21.60;101468.00;4387378;32;32919;-78
2022/03/14 09:51:07;;;;;;;;;;;;;;;11.53;21.26;101468.66;4412134;32;32404;-79
2022/03/14 09:53:35;;;;;;;;;;;;;;;11.39;21.63;101467.94;4433072;26;34949;-80
2022/03/14 09:56:02;;;;;;;;;;;;;;;11.33;21.93;101476.34;4393691;32;34327;-80
2022/03/14 09:58:29;;;;;;;;;;;;;;;11.55;22.11;101472.06;4402599;32;34760;-79
2022/03/14 10:01:01;;;;;;;;;;;;;;;12.05;20.47;101465.75;4404359;32;33527;-79
2022/03/14 10:03:29;;;;;;;;;;;;;;;11.42;21.76;101465.03;4404572;32;33646;-79
2022/03/14 10:05:57;;;;;;;;;;;;;;;12.35;20.32;101461.66;4406037;32;35890;-80
2022/03/14 10:08:24;;;;;;;;;;;;;;;12.33;20.22;101457.37;4392228;32;35737;-79
2022/03/14 10:10:52;;;;;;;;;;;;;;;12.49;20.66;101461.44;4405531;32;33493;-78
2022/03/14 10:13:39;;;;;;;;;;;;;;;12.39;20.62;101462.28;4403716;32;34193;-78
2022/03/14 10:16:07;;;;;;;;;;;;;;;12.45;19.51;101464.47;4388573;32;35886;-79
2022/03/14 10:18:37;;;;;;;;;;;;;;;12.55;19.60;101447.63;4404902;32;34654;-79
2022/03/14 10:21:07;;;;;;;;;;;;;;;12.52;19.47;101453.22;4403261;32;33171;-79
2022/03/14 10:23:41;;;;;;;;;;;;;;;12.40;20.03;101450.63;4405161;32;34175;-77
2022/03/14 10:26:12;;;;;;;;;;;;;;;12.77;19.48;101450.34;4403932;32;36127;-78
2022/03/14 10:28:40;;;;;;;;;;;;;;;12.32;20.02;101447.69;4373216;32;33099;-79
2022/03/14 10:31:32;;;;;;;;;;;;;;;12.01;20.25;101459.78;4402387;32;33913;-79
2022/03/14 10:34:09;;;;;;;;;;;;;;;12.49;19.79;101461.44;4376192;32;32568;-78
2022/03/14 10:36:43;;;;;;;;;;;;;;;12.85;20.18;101455.97;4393020;32;35902;-79
2022/03/14 10:39:11;;;;;;;;;;;;;;;12.61;19.08;101457.00;4403896;32;34145;-79
2022/03/14 10:41:40;;;;;;;;;;;;;;;12.64;19.52;101464.75;4403641;32;34095;-80
2022/03/14 10:44:26;;;;;;;;;;;;;;;12.83;19.47;101457.91;4379186;32;33304;-80
2022/03/14 10:46:57;;;;;;;;;;;;;;;12.96;19.14;101452.50;4393113;32;35431;-79
2022/03/14 10:49:28;;;;;;;;;;;;;;;12.83;18.94;101457.91;4403666;32;34509;-78
2022/03/14 10:51:57;;;;;;;;;;;;;;;13.07;19.34;101452.50;4405221;32;32403;-79
2022/03/14 10:54:24;;;;;;;;;;;;;;;12.81;19.54;101459.84;4404448;32;33924;-77
2022/03/14 10:57:04;;;;;;;;;;;;;;;13.07;19.52;101457.84;4386719;32;33477;-76
2022/03/14 10:59:35;;;;;;;;;;;;;;;13.13;18.77;101449.38;4399241;32;34676;-77
2022/03/14 11:02:03;;;;;;;;;;;;;;;13.01;19.23;101458.31;4388673;32;33238;-78
2022/03/14 11:04:44;;;;;;;;;;;;;;;13.08;19.33;101460.41;4410269;32;35010;-79
2022/03/14 11:07:13;;;;;;;;;;;;;;;13.42;19.57;101438.03;4392286;32;36965;-78
2022/03/14 11:09:41;;;;;;;;;;;;;;;13.76;18.82;101453.09;4403933;32;34338;-79
2022/03/14 11:12:11;;;;;;;;;;;;;;;13.11;19.47;101444.13;4389075;32;31899;-81
2022/03/14 11:14:39;;;;;;;;;;;;;;;13.66;18.75;101435.22;4391078;32;34309;-80
2022/03/14 11:17:14;;;;;;;;;;;;;;;14.05;18.65;101429.31;4399718;32;34146;-80
2022/03/14 11:19:41;;;;;;;;;;;;;;;14.05;19.29;101437.34;4391952;32;35340;-79
2022/03/14 11:22:11;;;;;;;;;;;;;;;14.40;18.14;101436.13;4405062;32;34003;-80
2022/03/14 11:24:42;;;;;;;;;;;;;;;14.71;18.70;101436.06;4387148;32;35096;-81
2022/03/14 11:27:10;;;;;;;;;;;;;;;14.42;17.83;101438.69;4392490;32;35278;-80
2022/03/14 11:29:38;;;;;;;;;;;;;;;14.79;18.16;101435.41;4384810;32;33384;-81
2022/03/14 11:32:05;;;;;;;;;;;;;;;14.75;17.95;101432.12;4394064;32;32520;-81
2022/03/14 11:34:55;;;;;;;;;;;;;;;14.10;18.58;101422.59;4403975;32;33423;-77
2022/03/14 11:37:22;;;;;;;;;;;;;;;14.35;19.17;101427.59;4407936;32;36034;-77
2022/03/14 11:39:49;;;;;;;;;;;;;;;13.84;18.57;101429.25;4392868;32;35710;-76
2022/03/14 11:42:18;;;;;;;;;;;;;;;13.85;18.54;101422.91;4408308;32;33419;-80
2022/03/14 11:44:45;;;;;;;;;;;;;;;14.14;18.82;101418.66;4391564;32;33814;-80
2022/03/14 11:47:13;;;;;;;;;;;;;;;14.14;19.01;101405.28;4390774;32;35221;-79
2022/03/14 11:49:41;;;;;;;;;;;;;;;14.32;19.25;101406.47;4390220;32;34330;-79
2022/03/14 11:52:12;;;;;;;;;;;;;;;14.02;19.47;101414.34;4403379;32;34145;-80
2022/03/14 11:54:41;;;;;;;;;;;;;;;14.63;18.46;101403.72;4401938;32;33588;-80
2022/03/14 11:57:09;;;;;;;;;;;;;;;14.52;18.91;101406.47;4400476;32;35155;-81
2022/03/14 11:59:36;;;;;;;;;;;;;;;15.00;18.74;101401.38;4373089;32;33265;-80
2022/03/14 12:02:05;;;;;;;;;;;;;;;14.65;18.04;101414.31;4389475;32;32963;-79
2022/03/14 12:04:36;;;;;;;;;;;;;;;14.47;18.46;101405.16;4408441;32;35104;-79
2022/03/14 12:07:03;;;;;;;;;;;;;;;14.20;19.03;101407.50;4402540;32;35057;-78
2022/03/14 12:09:31;;;;;;;;;;;;;;;14.63;18.56;101411.75;4393159;32;34494;-80
2022/03/14 12:12:01;;;;;;;;;;;;;;;14.72;18.58;101408.28;4387458;32;33133;-80
2022/03/14 12:14:45;;;;;;;;;;;;;;;15.26;17.97;101405.31;4387303;32;34187;-78
2022/03/14 12:17:12;;;;;;;;;;;;;;;15.01;18.42;101397.75;4401600;32;35313;-78
2022/03/14 12:19:44;;;;;;;;;;;;;;;14.66;19.03;101394.59;4402773;32;34914;-79
2022/03/14 12:22:13;;;;;;;;;;;;;;;14.55;18.56;101400.84;4406916;32;33527;-80
2022/03/14 12:24:40;;;;;;;;;;;;;;;15.01;18.50;101406.63;4406254;32;33983;-80
2022/03/14 12:27:16;;;;;;;;;;;;;;;15.21;19.00;101400.34;4408224;32;35593;-80
2022/03/14 12:29:44;;;;;;;;;;;;;;;15.72;18.06;101379.66;4402594;32;34630;-82
2022/03/14 12:32:23;;;;;;;;;;;;;;;16.49;17.40;101377.84;4390427;32;32534;-81
2022/03/14 12:34:57;;;;;;;;;;;;;;;17.54;16.03;101371.09;4397477;32;33292;-80
2022/03/14 12:37:32;;;;;;;;;;;;;;;17.89;15.47;101371.16;4391432;32;34833;-82
2022/03/14 12:40:01;;;;;;;;;;;;;;;18.57;15.39;101371.31;4373188;32;33949;-80
2022/03/14 12:42:32;;;;;;;;;;;;;;;19.08;15.25;101378.53;4388302;32;32933;-80
2022/03/14 12:45:24;;;;;;;;;;;;;;;19.64;15.04;101376.13;4398063;32;35099;-80
2022/03/14 12:48:06;;;;;;;;;;;;;;;20.12;15.27;101371.69;4385972;32;35171;-78
2022/03/14 12:50:43;;;;;;;;;;;;;;;18.29;15.26;101358.97;4389175;32;34872;-78
2022/03/14 12:53:12;;;;;;;;;;;;;;;18.22;14.99;101360.53;4400834;32;33130;-80